sensor_id;sensor_type;location;lat;lon;timestamp;pressure;altitude;pressure_sealevel;temperature;humidity
72438;BME280;60444;43.534;-5.674;2024-02-26T00:01:42;100416.16;;;11.49;100.00
72438;BME280;60444;43.534;-5.674;2024-02-26T00:04:11;100404.31;;;11.36;100.00
72438;BME280;60444;43.534;-5.674;2024-02-26T00:06:38;100436.09;;;11.48;100.00
72438;BME280;60444;43.534;-5.674;2024-02-26T00:09:06;100412.41;;;11.36;100.00
72438;BME280;60444;43.534;-5.674;2024-02-26T00:11:31;100430.50;;;11.51;100.00
72438;BME280;60444;43.534;-5.674;2024-02-26T00:13:57;100387.00;;;11.23;100.00
72438;BME280;60444;43.534;-5.674;2024-02-26T00:16:23;100415.66;;;11.42;100.00
72438;BME280;60444;43.534;-5.674;2024-02-26T00:18:49;100414.69;;;11.43;100.00
72438;BME280;60444;43.534;-5.674;2024-02-26T00:21:14;100391.50;;;11.24;100.00
72438;BME280;60444;43.534;-5.674;2024-02-26T00:23:40;100421.34;;;11.38;100.00
72438;BME280;60444;43.534;-5.674;2024-02-26T00:26:05;100381.78;;;11.20;100.00
72438;BME280;60444;43.534;-5.674;2024-02-26T00:28:31;100408.13;;;11.32;100.00
72438;BME280;60444;43.534;-5.674;2024-02-26T00:30:56;100439.75;;;11.47;100.00
72438;BME280;60444;43.534;-5.674;2024-02-26T00:33:22;100435.22;;;11.32;100.00
72438;BME280;60444;43.534;-5.674;2024-02-26T00:35:48;100445.69;;;11.38;100.00
72438;BME280;60444;43.534;-5.674;2024-02-26T00:38:14;100428.75;;;11.34;100.00
72438;BME280;60444;43.534;-5.674;2024-02-26T00:40:40;100410.09;;;11.14;100.00
72438;BME280;60444;43.534;-5.674;2024-02-26T00:43:09;100390.34;;;11.12;100.00
72438;BME280;60444;43.534;-5.674;2024-02-26T00:45:34;100418.31;;;11.13;100.00
72438;BME280;60444;43.534;-5.674;2024-02-26T00:48:00;100417.78;;;11.06;100.00
72438;BME280;60444;43.534;-5.674;2024-02-26T00:50:30;100457.25;;;11.26;100.00
72438;BME280;60444;43.534;-5.674;2024-02-26T00:52:55;100476.19;;;11.26;100.00
72438;BME280;60444;43.534;-5.674;2024-02-26T00:55:21;100479.00;;;11.24;100.00
72438;BME280;60444;43.534;-5.674;2024-02-26T00:57:47;100474.97;;;11.16;100.00
72438;BME280;60444;43.534;-5.674;2024-02-26T01:00:13;100497.50;;;11.32;100.00
72438;BME280;60444;43.534;-5.674;2024-02-26T01:02:39;100503.63;;;11.20;100.00
72438;BME280;60444;43.534;-5.674;2024-02-26T01:05:05;100486.94;;;11.12;100.00
72438;BME280;60444;43.534;-5.674;2024-02-26T01:07:31;100490.69;;;11.09;100.00
72438;BME280;60444;43.534;-5.674;2024-02-26T01:10:01;100483.88;;;11.02;100.00
72438;BME280;60444;43.534;-5.674;2024-02-26T01:12:27;100471.38;;;11.00;100.00
72438;BME280;60444;43.534;-5.674;2024-02-26T01:14:53;100516.72;;;11.12;100.00
72438;BME280;60444;43.534;-5.674;2024-02-26T01:17:18;100519.44;;;11.12;100.00
72438;BME280;60444;43.534;-5.674;2024-02-26T01:19:44;100461.16;;;10.89;100.00
72438;BME280;60444;43.534;-5.674;2024-02-26T01:22:09;100521.44;;;11.08;100.00
72438;BME280;60444;43.534;-5.674;2024-02-26T01:24:35;100503.69;;;11.03;100.00
72438;BME280;60444;43.534;-5.674;2024-02-26T01:27:00;100504.75;;;11.16;100.00
72438;BME280;60444;43.534;-5.674;2024-02-26T01:29:26;100513.38;;;11.07;100.00
72438;BME280;60444;43.534;-5.674;2024-02-26T01:31:51;100533.31;;;11.21;100.00
72438;BME280;60444;43.534;-5.674;2024-02-26T01:34:17;100507.72;;;11.11;100.00
72438;BME280;60444;43.534;-5.674;2024-02-26T01:36:43;100476.00;;;10.98;100.00
72438;BME280;60444;43.534;-5.674;2024-02-26T01:39:09;100504.75;;;11.16;100.00
72438;BME280;60444;43.534;-5.674;2024-02-26T01:41:38;100532.19;;;11.25;100.00
72438;BME280;60444;43.534;-5.674;2024-02-26T01:44:04;100485.47;;;11.06;100.00
72438;BME280;60444;43.534;-5.674;2024-02-26T01:46:31;100542.56;;;11.48;100.00
72438;BME280;60444;43.534;-5.674;2024-02-26T01:48:58;100527.41;;;11.46;100.00
72438;BME280;60444;43.534;-5.674;2024-02-26T01:51:24;100521.88;;;11.47;100.00
72438;BME280;60444;43.534;-5.674;2024-02-26T01:53:50;100519.59;;;11.40;100.00
72438;BME280;60444;43.534;-5.674;2024-02-26T01:56:17;100484.47;;;11.23;100.00
72438;BME280;60444;43.534;-5.674;2024-02-26T01:58:44;100490.25;;;11.32;100.00
72438;BME280;60444;43.534;-5.674;2024-02-26T02:01:10;100490.84;;;11.37;100.00
72438;BME280;60444;43.534;-5.674;2024-02-26T02:03:36;100510.69;;;11.53;100.00
72438;BME280;60444;43.534;-5.674;2024-02-26T02:06:03;100503.00;;;11.62;100.00
72438;BME280;60444;43.534;-5.674;2024-02-26T02:08:28;100468.06;;;11.41;100.00
72438;BME280;60444;43.534;-5.674;2024-02-26T02:10:55;100516.28;;;11.50;100.00
72438;BME280;60444;43.534;-5.674;2024-02-26T02:13:21;100503.88;;;11.46;100.00
72438;BME280;60444;43.534;-5.674;2024-02-26T02:15:47;100499.34;;;11.47;100.00
72438;BME280;60444;43.534;-5.674;2024-02-26T02:18:12;100467.72;;;11.32;100.00
72438;BME280;60444;43.534;-5.674;2024-02-26T02:20:38;100476.72;;;11.48;100.00
72438;BME280;60444;43.534;-5.674;2024-02-26T02:23:04;100459.84;;;11.43;100.00
72438;BME280;60444;43.534;-5.674;2024-02-26T02:25:29;100454.41;;;11.43;100.00
72438;BME280;60444;43.534;-5.674;2024-02-26T02:27:55;100475.75;;;11.65;100.00
72438;BME280;60444;43.534;-5.674;2024-02-26T02:30:26;100500.56;;;11.57;100.00
72438;BME280;60444;43.534;-5.674;2024-02-26T02:32:53;100501.59;;;11.55;100.00
72438;BME280;60444;43.534;-5.674;2024-02-26T02:35:19;100527.31;;;11.47;100.00
72438;BME280;60444;43.534;-5.674;2024-02-26T02:37:44;100509.28;;;11.46;100.00
72438;BME280;60444;43.534;-5.674;2024-02-26T02:40:10;100470.88;;;11.24;100.00
72438;BME280;60444;43.534;-5.674;2024-02-26T02:42:35;100468.09;;;11.26;100.00
72438;BME280;60444;43.534;-5.674;2024-02-26T02:45:01;100505.28;;;11.38;100.00
72438;BME280;60444;43.534;-5.674;2024-02-26T02:47:26;100509.75;;;11.39;100.00
72438;BME280;60444;43.534;-5.674;2024-02-26T02:49:52;100475.06;;;11.14;100.00
72438;BME280;60444;43.534;-5.674;2024-02-26T02:52:17;100469.91;;;11.10;100.00
72438;BME280;60444;43.534;-5.674;2024-02-26T02:54:43;100472.97;;;11.04;100.00
72438;BME280;60444;43.534;-5.674;2024-02-26T02:57:09;100515.22;;;11.22;100.00
72438;BME280;60444;43.534;-5.674;2024-02-26T02:59:36;100491.09;;;11.02;100.00
72438;BME280;60444;43.534;-5.674;2024-02-26T03:02:01;100489.91;;;11.07;100.00
72438;BME280;60444;43.534;-5.674;2024-02-26T03:04:27;100495.00;;;10.81;100.00
72438;BME280;60444;43.534;-5.674;2024-02-26T03:06:53;100554.72;;;10.78;100.00
72438;BME280;60444;43.534;-5.674;2024-02-26T03:09:19;100531.06;;;10.49;100.00
72438;BME280;60444;43.534;-5.674;2024-02-26T03:11:44;100528.03;;;10.20;100.00
72438;BME280;60444;43.534;-5.674;2024-02-26T03:14:10;100527.41;;;10.15;100.00
72438;BME280;60444;43.534;-5.674;2024-02-26T03:16:36;100527.84;;;10.06;100.00
72438;BME280;60444;43.534;-5.674;2024-02-26T03:19:01;100498.63;;;10.14;100.00
72438;BME280;60444;43.534;-5.674;2024-02-26T03:21:28;100525.13;;;10.06;100.00
72438;BME280;60444;43.534;-5.674;2024-02-26T03:23:54;100529.28;;;9.96;100.00
72438;BME280;60444;43.534;-5.674;2024-02-26T03:26:20;100590.34;;;9.82;100.00
72438;BME280;60444;43.534;-5.674;2024-02-26T03:28:47;100568.03;;;9.78;100.00
72438;BME280;60444;43.534;-5.674;2024-02-26T03:31:12;100504.84;;;9.64;100.00
72438;BME280;60444;43.534;-5.674;2024-02-26T03:33:38;100526.53;;;9.79;100.00
72438;BME280;60444;43.534;-5.674;2024-02-26T03:36:04;100543.63;;;9.80;100.00
72438;BME280;60444;43.534;-5.674;2024-02-26T03:38:29;100523.94;;;9.59;100.00
72438;BME280;60444;43.534;-5.674;2024-02-26T03:40:55;100495.81;;;9.46;100.00
72438;BME280;60444;43.534;-5.674;2024-02-26T03:43:21;100543.72;;;9.78;100.00
72438;BME280;60444;43.534;-5.674;2024-02-26T03:45:47;100523.94;;;9.59;100.00
72438;BME280;60444;43.534;-5.674;2024-02-26T03:48:12;100532.56;;;9.84;100.00
72438;BME280;60444;43.534;-5.674;2024-02-26T03:50:38;100504.50;;;9.53;100.00
72438;BME280;60444;43.534;-5.674;2024-02-26T03:53:03;100533.22;;;9.89;100.00
72438;BME280;60444;43.534;-5.674;2024-02-26T03:55:29;100503.25;;;9.77;100.00
72438;BME280;60444;43.534;-5.674;2024-02-26T03:57:54;100523.09;;;10.11;100.00
72438;BME280;60444;43.534;-5.674;2024-02-26T04:00:20;100543.75;;;10.29;100.00
72438;BME280;60444;43.534;-5.674;2024-02-26T04:02:47;100538.75;;;10.39;100.00
72438;BME280;60444;43.534;-5.674;2024-02-26T04:05:13;100523.41;;;10.22;100.00
72438;BME280;60444;43.534;-5.674;2024-02-26T04:07:40;100516.34;;;10.37;100.00
72438;BME280;60444;43.534;-5.674;2024-02-26T04:10:12;100496.03;;;10.45;100.00
72438;BME280;60444;43.534;-5.674;2024-02-26T04:12:42;100519.88;;;10.55;100.00
72438;BME280;60444;43.534;-5.674;2024-02-26T04:15:08;100520.28;;;10.47;100.00
72438;BME280;60444;43.534;-5.674;2024-02-26T04:17:35;100536.75;;;10.60;100.00
72438;BME280;60444;43.534;-5.674;2024-02-26T04:20:01;100504.94;;;10.48;100.00
72438;BME280;60444;43.534;-5.674;2024-02-26T04:22:27;100507.66;;;10.48;100.00
72438;BME280;60444;43.534;-5.674;2024-02-26T04:24:52;100506.84;;;10.63;100.00
72438;BME280;60444;43.534;-5.674;2024-02-26T04:27:18;100517.56;;;10.64;100.00
72438;BME280;60444;43.534;-5.674;2024-02-26T04:29:43;100528.59;;;10.77;100.00
72438;BME280;60444;43.534;-5.674;2024-02-26T04:32:09;100512.19;;;10.80;100.00
72438;BME280;60444;43.534;-5.674;2024-02-26T04:34:35;100527.47;;;10.81;100.00
72438;BME280;60444;43.534;-5.674;2024-02-26T04:37:00;100511.78;;;10.87;100.00
72438;BME280;60444;43.534;-5.674;2024-02-26T04:39:26;100526.38;;;10.85;100.00
72438;BME280;60444;43.534;-5.674;2024-02-26T04:41:51;100498.84;;;10.77;100.00
72438;BME280;60444;43.534;-5.674;2024-02-26T04:44:17;100488.84;;;10.62;100.00
72438;BME280;60444;43.534;-5.674;2024-02-26T04:46:42;100522.09;;;10.64;100.00
72438;BME280;60444;43.534;-5.674;2024-02-26T04:49:09;100523.66;;;10.52;100.00
72438;BME280;60444;43.534;-5.674;2024-02-26T04:51:34;100576.75;;;10.53;100.00
72438;BME280;60444;43.534;-5.674;2024-02-26T04:54:00;100528.38;;;10.14;100.00
72438;BME280;60444;43.534;-5.674;2024-02-26T04:56:25;100558.25;;;10.28;100.00
72438;BME280;60444;43.534;-5.674;2024-02-26T04:58:51;100548.22;;;10.13;100.00
72438;BME280;60444;43.534;-5.674;2024-02-26T05:01:18;100586.22;;;10.27;100.00
72438;BME280;60444;43.534;-5.674;2024-02-26T05:03:44;100582.72;;;10.25;100.00
72438;BME280;60444;43.534;-5.674;2024-02-26T05:06:09;100574.84;;;10.38;100.00
72438;BME280;60444;43.534;-5.674;2024-02-26T05:08:35;100536.75;;;10.25;100.00
72438;BME280;60444;43.534;-5.674;2024-02-26T05:11:04;100578.66;;;10.51;100.00
72438;BME280;60444;43.534;-5.674;2024-02-26T05:13:30;100565.66;;;10.25;100.00
72438;BME280;60444;43.534;-5.674;2024-02-26T05:15:55;100584.47;;;10.26;100.00
72438;BME280;60444;43.534;-5.674;2024-02-26T05:18:24;100578.78;;;10.32;100.00
72438;BME280;60444;43.534;-5.674;2024-02-26T05:20:49;100589.03;;;10.43;100.00
72438;BME280;60444;43.534;-5.674;2024-02-26T05:23:15;100576.59;;;10.39;100.00
72438;BME280;60444;43.534;-5.674;2024-02-26T05:25:40;100551.06;;;10.27;100.00
72438;BME280;60444;43.534;-5.674;2024-02-26T05:28:07;100581.63;;;10.47;100.00
72438;BME280;60444;43.534;-5.674;2024-02-26T05:30:32;100559.19;;;10.27;100.00
72438;BME280;60444;43.534;-5.674;2024-02-26T05:32:58;100578.59;;;10.35;100.00
72438;BME280;60444;43.534;-5.674;2024-02-26T05:35:24;100550.91;;;10.13;100.00
72438;BME280;60444;43.534;-5.674;2024-02-26T05:37:51;100551.72;;;10.15;100.00
72438;BME280;60444;43.534;-5.674;2024-02-26T05:40:16;100584.41;;;10.28;100.00
72438;BME280;60444;43.534;-5.674;2024-02-26T05:42:42;100599.44;;;10.33;100.00
72438;BME280;60444;43.534;-5.674;2024-02-26T05:45:10;100583.50;;;10.27;100.00
72438;BME280;60444;43.534;-5.674;2024-02-26T05:47:35;100615.25;;;10.41;100.00
72438;BME280;60444;43.534;-5.674;2024-02-26T05:50:02;100609.00;;;10.58;100.00
72438;BME280;60444;43.534;-5.674;2024-02-26T05:52:27;100628.69;;;10.77;100.00
72438;BME280;60444;43.534;-5.674;2024-02-26T05:54:54;100572.81;;;10.43;100.00
72438;BME280;60444;43.534;-5.674;2024-02-26T05:57:20;100578.53;;;10.54;100.00
72438;BME280;60444;43.534;-5.674;2024-02-26T05:59:45;100609.44;;;10.83;100.00
72438;BME280;60444;43.534;-5.674;2024-02-26T06:02:11;100612.78;;;10.88;100.00
72438;BME280;60444;43.534;-5.674;2024-02-26T06:04:36;100579.31;;;10.89;100.00
72438;BME280;60444;43.534;-5.674;2024-02-26T06:07:02;100636.25;;;11.20;100.00
72438;BME280;60444;43.534;-5.674;2024-02-26T06:09:28;100599.13;;;11.06;100.00
72438;BME280;60444;43.534;-5.674;2024-02-26T06:11:53;100596.06;;;11.12;100.00
72438;BME280;60444;43.534;-5.674;2024-02-26T06:14:19;100618.72;;;11.27;100.00
72438;BME280;60444;43.534;-5.674;2024-02-26T06:16:46;100612.19;;;11.31;100.00
72438;BME280;60444;43.534;-5.674;2024-02-26T06:19:11;100595.75;;;11.18;100.00
72438;BME280;60444;43.534;-5.674;2024-02-26T06:21:37;100596.63;;;11.19;100.00
72438;BME280;60444;43.534;-5.674;2024-02-26T06:24:02;100628.09;;;11.37;100.00
72438;BME280;60444;43.534;-5.674;2024-02-26T06:26:28;100587.22;;;11.26;100.00
72438;BME280;60444;43.534;-5.674;2024-02-26T06:28:55;100606.09;;;11.43;100.00
72438;BME280;60444;43.534;-5.674;2024-02-26T06:31:21;100589.13;;;11.24;100.00
72438;BME280;60444;43.534;-5.674;2024-02-26T06:33:48;100576.78;;;11.18;100.00
72438;BME280;60444;43.534;-5.674;2024-02-26T06:36:15;100572.88;;;11.08;100.00
72438;BME280;60444;43.534;-5.674;2024-02-26T06:38:40;100580.63;;;11.14;100.00
72438;BME280;60444;43.534;-5.674;2024-02-26T06:41:06;100599.66;;;11.13;100.00
72438;BME280;60444;43.534;-5.674;2024-02-26T06:43:31;100614.94;;;11.14;100.00
72438;BME280;60444;43.534;-5.674;2024-02-26T06:45:57;100626.59;;;10.99;100.00
72438;BME280;60444;43.534;-5.674;2024-02-26T06:48:24;100653.56;;;11.17;100.00
72438;BME280;60444;43.534;-5.674;2024-02-26T06:50:52;100658.63;;;11.23;100.00
72438;BME280;60444;43.534;-5.674;2024-02-26T06:53:17;100626.09;;;11.08;100.00
72438;BME280;60444;43.534;-5.674;2024-02-26T06:55:44;100659.50;;;11.24;100.00
72438;BME280;60444;43.534;-5.674;2024-02-26T06:58:10;100674.88;;;11.23;100.00
72438;BME280;60444;43.534;-5.674;2024-02-26T07:00:36;100634.13;;;11.09;100.00
72438;BME280;60444;43.534;-5.674;2024-02-26T07:03:01;100659.34;;;11.27;100.00
72438;BME280;60444;43.534;-5.674;2024-02-26T07:05:27;100639.25;;;11.15;100.00
72438;BME280;60444;43.534;-5.674;2024-02-26T07:07:53;100662.53;;;11.35;100.00
72438;BME280;60444;43.534;-5.674;2024-02-26T07:10:18;100654.91;;;11.26;100.00
72438;BME280;60444;43.534;-5.674;2024-02-26T07:12:44;100649.56;;;11.24;100.00
72438;BME280;60444;43.534;-5.674;2024-02-26T07:15:10;100672.78;;;11.28;100.00
72438;BME280;60444;43.534;-5.674;2024-02-26T07:17:35;100655.88;;;11.08;100.00
72438;BME280;60444;43.534;-5.674;2024-02-26T07:20:01;100685.03;;;11.03;100.00
72438;BME280;60444;43.534;-5.674;2024-02-26T07:22:30;100684.56;;;10.78;100.00
72438;BME280;60444;43.534;-5.674;2024-02-26T07:24:55;100706.84;;;10.83;100.00
72438;BME280;60444;43.534;-5.674;2024-02-26T07:27:21;100694.41;;;10.62;100.00
72438;BME280;60444;43.534;-5.674;2024-02-26T07:29:46;100723.88;;;11.02;100.00
72438;BME280;60444;43.534;-5.674;2024-02-26T07:32:13;100686.59;;;11.07;100.00
72438;BME280;60444;43.534;-5.674;2024-02-26T07:34:38;100695.19;;;10.98;100.00
72438;BME280;60444;43.534;-5.674;2024-02-26T07:37:16;100659.47;;;10.74;100.00
72438;BME280;60444;43.534;-5.674;2024-02-26T07:39:41;100681.03;;;10.93;100.00
72438;BME280;60444;43.534;-5.674;2024-02-26T07:42:07;100672.59;;;10.82;100.00
72438;BME280;60444;43.534;-5.674;2024-02-26T07:44:33;100700.31;;;11.04;100.00
72438;BME280;60444;43.534;-5.674;2024-02-26T07:46:58;100671.72;;;10.98;100.00
72438;BME280;60444;43.534;-5.674;2024-02-26T07:49:24;100673.78;;;11.10;100.00
72438;BME280;60444;43.534;-5.674;2024-02-26T07:51:49;100707.13;;;11.11;100.00
72438;BME280;60444;43.534;-5.674;2024-02-26T07:54:15;100698.78;;;11.15;100.00
72438;BME280;60444;43.534;-5.674;2024-02-26T07:56:41;100724.31;;;11.27;100.00
72438;BME280;60444;43.534;-5.674;2024-02-26T07:59:07;100722.59;;;11.26;100.00
72438;BME280;60444;43.534;-5.674;2024-02-26T08:01:33;100685.47;;;11.11;100.00
72438;BME280;60444;43.534;-5.674;2024-02-26T08:03:59;100694.56;;;11.10;100.00
72438;BME280;60444;43.534;-5.674;2024-02-26T08:06:25;100719.78;;;11.10;100.00
72438;BME280;60444;43.534;-5.674;2024-02-26T08:08:50;100718.91;;;11.27;100.00
72438;BME280;60444;43.534;-5.674;2024-02-26T08:11:16;100716.53;;;11.04;100.00
72438;BME280;60444;43.534;-5.674;2024-02-26T08:13:41;100705.41;;;10.93;100.00
72438;BME280;60444;43.534;-5.674;2024-02-26T08:16:07;100703.34;;;10.81;100.00
72438;BME280;60444;43.534;-5.674;2024-02-26T08:18:33;100716.75;;;10.65;100.00
72438;BME280;60444;43.534;-5.674;2024-02-26T08:20:58;100702.88;;;10.37;100.00
72438;BME280;60444;43.534;-5.674;2024-02-26T08:23:24;100758.84;;;10.35;100.00
72438;BME280;60444;43.534;-5.674;2024-02-26T08:25:50;100748.13;;;10.33;100.00
72438;BME280;60444;43.534;-5.674;2024-02-26T08:28:16;100731.47;;;10.05;100.00
72438;BME280;60444;43.534;-5.674;2024-02-26T08:30:43;100737.03;;;10.21;100.00
72438;BME280;60444;43.534;-5.674;2024-02-26T08:33:09;100732.88;;;10.14;100.00
72438;BME280;60444;43.534;-5.674;2024-02-26T08:35:35;100728.16;;;9.99;100.00
72438;BME280;60444;43.534;-5.674;2024-02-26T08:38:01;100744.47;;;9.97;100.00
72438;BME280;60444;43.534;-5.674;2024-02-26T08:40:26;100737.16;;;9.99;100.00
72438;BME280;60444;43.534;-5.674;2024-02-26T08:42:52;100751.72;;;10.15;100.00
72438;BME280;60444;43.534;-5.674;2024-02-26T08:45:19;100746.88;;;10.40;100.00
72438;BME280;60444;43.534;-5.674;2024-02-26T08:47:45;100712.53;;;10.24;100.00
72438;BME280;60444;43.534;-5.674;2024-02-26T08:50:11;100716.31;;;10.38;100.00
72438;BME280;60444;43.534;-5.674;2024-02-26T08:52:38;100748.50;;;10.26;100.00
72438;BME280;60444;43.534;-5.674;2024-02-26T08:55:04;100739.03;;;10.34;100.00
72438;BME280;60444;43.534;-5.674;2024-02-26T08:57:31;100743.09;;;10.26;100.00
72438;BME280;60444;43.534;-5.674;2024-02-26T08:59:59;100767.66;;;10.57;100.00
72438;BME280;60444;43.534;-5.674;2024-02-26T09:02:26;100747.94;;;10.55;100.00
72438;BME280;60444;43.534;-5.674;2024-02-26T09:04:51;100755.13;;;10.73;100.00
72438;BME280;60444;43.534;-5.674;2024-02-26T09:07:19;100756.31;;;10.68;100.00
72438;BME280;60444;43.534;-5.674;2024-02-26T09:09:45;100747.31;;;10.31;100.00
72438;BME280;60444;43.534;-5.674;2024-02-26T09:12:10;100748.50;;;10.26;100.00
72438;BME280;60444;43.534;-5.674;2024-02-26T09:14:36;100743.44;;;10.18;100.00
72438;BME280;60444;43.534;-5.674;2024-02-26T09:17:02;100773.50;;;10.12;100.00
72438;BME280;60444;43.534;-5.674;2024-02-26T09:19:27;100768.50;;;10.03;100.00
72438;BME280;60444;43.534;-5.674;2024-02-26T09:21:53;100830.25;;;10.12;100.00
72438;BME280;60444;43.534;-5.674;2024-02-26T09:24:23;100793.16;;;9.96;100.00
72438;BME280;60444;43.534;-5.674;2024-02-26T09:26:48;100784.88;;;9.80;100.00
72438;BME280;60444;43.534;-5.674;2024-02-26T09:29:14;100793.22;;;9.76;100.00
72438;BME280;60444;43.534;-5.674;2024-02-26T09:31:39;100816.44;;;9.80;100.00
72438;BME280;60444;43.534;-5.674;2024-02-26T09:34:07;100782.56;;;9.73;100.00
72438;BME280;60444;43.534;-5.674;2024-02-26T09:36:33;100787.56;;;9.62;100.00
72438;BME280;60444;43.534;-5.674;2024-02-26T09:38:58;100782.19;;;9.80;100.00
72438;BME280;60444;43.534;-5.674;2024-02-26T09:41:27;100828.22;;;9.97;100.00
72438;BME280;60444;43.534;-5.674;2024-02-26T09:43:56;100829.28;;;9.75;100.00
72438;BME280;60444;43.534;-5.674;2024-02-26T09:46:23;100828.88;;;9.64;100.00
72438;BME280;60444;43.534;-5.674;2024-02-26T09:48:49;100836.03;;;9.65;100.00
72438;BME280;60444;43.534;-5.674;2024-02-26T09:51:14;100825.16;;;9.46;100.00
72438;BME280;60444;43.534;-5.674;2024-02-26T09:53:43;100869.06;;;9.71;100.00
72438;BME280;60444;43.534;-5.674;2024-02-26T09:56:11;100869.47;;;9.62;100.00
72438;BME280;60444;43.534;-5.674;2024-02-26T09:58:39;100869.88;;;9.53;100.00
72438;BME280;60444;43.534;-5.674;2024-02-26T10:01:11;100889.97;;;9.66;100.00
72438;BME280;60444;43.534;-5.674;2024-02-26T10:03:43;100868.09;;;9.52;100.00
72438;BME280;60444;43.534;-5.674;2024-02-26T10:06:11;100897.66;;;9.75;100.00
72438;BME280;60444;43.534;-5.674;2024-02-26T10:08:37;100886.84;;;9.75;100.00
72438;BME280;60444;43.534;-5.674;2024-02-26T10:11:04;100870.13;;;9.67;100.00
72438;BME280;60444;43.534;-5.674;2024-02-26T10:13:30;100852.03;;;9.69;100.00
72438;BME280;60444;43.534;-5.674;2024-02-26T10:15:55;100914.34;;;9.85;100.00
72438;BME280;60444;43.534;-5.674;2024-02-26T10:18:22;100917.94;;;9.85;100.00
72438;BME280;60444;43.534;-5.674;2024-02-26T10:21:02;100921.16;;;9.73;100.00
72438;BME280;60444;43.534;-5.674;2024-02-26T10:23:27;100913.59;;;9.61;100.00
72438;BME280;60444;43.534;-5.674;2024-02-26T10:25:56;100942.75;;;9.73;100.00
72438;BME280;60444;43.534;-5.674;2024-02-26T10:28:22;100937.75;;;9.64;100.00
72438;BME280;60444;43.534;-5.674;2024-02-26T10:30:48;100951.69;;;9.75;100.00
72438;BME280;60444;43.534;-5.674;2024-02-26T10:33:14;100945.47;;;9.53;100.00
72438;BME280;60444;43.534;-5.674;2024-02-26T10:35:45;100927.09;;;9.61;100.00
72438;BME280;60444;43.534;-5.674;2024-02-26T10:38:10;100952.91;;;9.68;100.00
72438;BME280;60444;43.534;-5.674;2024-02-26T10:40:37;100933.84;;;9.51;100.00
72438;BME280;60444;43.534;-5.674;2024-02-26T10:43:05;100938.69;;;9.43;100.00
72438;BME280;60444;43.534;-5.674;2024-02-26T10:45:32;100969.31;;;9.64;100.00
72438;BME280;60444;43.534;-5.674;2024-02-26T10:47:57;100975.56;;;9.64;100.00
72438;BME280;60444;43.534;-5.674;2024-02-26T10:50:24;100959.91;;;9.52;100.00
72438;BME280;60444;43.534;-5.674;2024-02-26T10:52:54;101000.69;;;9.66;100.00
72438;BME280;60444;43.534;-5.674;2024-02-26T10:55:21;100988.53;;;9.56;100.00
72438;BME280;60444;43.534;-5.674;2024-02-26T10:57:48;100961.91;;;9.47;100.00
72438;BME280;60444;43.534;-5.674;2024-02-26T11:00:17;100974.59;;;9.45;100.00
72438;BME280;60444;43.534;-5.674;2024-02-26T11:02:44;100977.91;;;9.52;100.00
72438;BME280;60444;43.534;-5.674;2024-02-26T11:05:12;100994.06;;;9.53;100.00
72438;BME280;60444;43.534;-5.674;2024-02-26T11:07:38;101000.84;;;9.63;100.00
72438;BME280;60444;43.534;-5.674;2024-02-26T11:10:07;101015.69;;;9.73;100.00
72438;BME280;60444;43.534;-5.674;2024-02-26T11:12:33;101019.50;;;9.69;100.00
72438;BME280;60444;43.534;-5.674;2024-02-26T11:15:02;101011.38;;;9.69;100.00
72438;BME280;60444;43.534;-5.674;2024-02-26T11:17:29;101011.41;;;9.68;100.00
72438;BME280;60444;43.534;-5.674;2024-02-26T11:19:57;101006.47;;;9.57;100.00
72438;BME280;60444;43.534;-5.674;2024-02-26T11:22:28;101023.50;;;9.59;100.00
72438;BME280;60444;43.534;-5.674;2024-02-26T11:24:54;101040.81;;;9.75;100.00
72438;BME280;60444;43.534;-5.674;2024-02-26T11:27:27;101017.78;;;9.67;100.00
72438;BME280;60444;43.534;-5.674;2024-02-26T11:29:56;101046.78;;;9.83;100.00
72438;BME280;60444;43.534;-5.674;2024-02-26T11:32:26;101038.31;;;9.71;100.00
72438;BME280;60444;43.534;-5.674;2024-02-26T11:34:53;101038.88;;;9.79;100.00
72438;BME280;60444;43.534;-5.674;2024-02-26T11:37:19;100999.09;;;9.62;100.00
72438;BME280;60444;43.534;-5.674;2024-02-26T11:39:46;101025.56;;;9.74;100.00
72438;BME280;60444;43.534;-5.674;2024-02-26T11:42:15;101066.00;;;9.97;100.00
72438;BME280;60444;43.534;-5.674;2024-02-26T11:44:41;101068.75;;;9.96;100.00
72438;BME280;60444;43.534;-5.674;2024-02-26T11:47:21;101041.78;;;9.74;100.00
72438;BME280;60444;43.534;-5.674;2024-02-26T11:49:47;101067.34;;;9.87;100.00
72438;BME280;60444;43.534;-5.674;2024-02-26T11:52:14;101098.94;;;9.85;100.00
72438;BME280;60444;43.534;-5.674;2024-02-26T11:54:49;101141.44;;;9.80;100.00
72438;BME280;60444;43.534;-5.674;2024-02-26T11:57:38;101134.75;;;9.69;100.00
72438;BME280;60444;43.534;-5.674;2024-02-26T12:02:46;101125.88;;;9.65;100.00
72438;BME280;60444;43.534;-5.674;2024-02-26T12:05:15;101102.19;;;9.50;100.00
72438;BME280;60444;43.534;-5.674;2024-02-26T12:07:49;101123.19;;;9.65;100.00
72438;BME280;60444;43.534;-5.674;2024-02-26T12:10:27;101138.19;;;9.72;100.00
72438;BME280;60444;43.534;-5.674;2024-02-26T12:13:00;101137.00;;;9.79;100.00
72438;BME280;60444;43.534;-5.674;2024-02-26T12:15:56;101138.75;;;9.80;100.00
72438;BME280;60444;43.534;-5.674;2024-02-26T12:18:23;101143.16;;;9.83;100.00
72438;BME280;60444;43.534;-5.674;2024-02-26T12:21:04;101134.22;;;9.81;100.00
72438;BME280;60444;43.534;-5.674;2024-02-26T12:23:30;101148.94;;;9.95;100.00
72438;BME280;60444;43.534;-5.674;2024-02-26T12:25:59;101118.59;;;9.89;100.00
72438;BME280;60444;43.534;-5.674;2024-02-26T12:28:31;101142.00;;;10.11;100.00
72438;BME280;60444;43.534;-5.674;2024-02-26T12:30:57;101148.06;;;10.16;100.00
72438;BME280;60444;43.534;-5.674;2024-02-26T12:33:25;101118.00;;;10.02;100.00